sensor_id;sensor_type;location;lat;lon;timestamp;P1;durP1;ratioP1;P2;durP2;ratioP2
64419;SDS011;50745;48.170;14.516;2023-01-16T00:07:08;1.10;;;1.10;;
64419;SDS011;50745;48.170;14.516;2023-01-16T00:17:10;1.27;;;1.10;;
64419;SDS011;50745;48.170;14.516;2023-01-16T00:27:11;2.03;;;1.33;;
64419;SDS011;50745;48.170;14.516;2023-01-16T00:37:12;1.40;;;1.30;;
64419;SDS011;50745;48.170;14.516;2023-01-16T00:47:13;1.20;;;1.10;;
64419;SDS011;50745;48.170;14.516;2023-01-16T00:57:14;2.70;;;1.45;;
64419;SDS011;50745;48.170;14.516;2023-01-16T01:07:15;2.38;;;1.30;;
64419;SDS011;50745;48.170;14.516;2023-01-16T01:17:17;1.35;;;1.25;;
64419;SDS011;50745;48.170;14.516;2023-01-16T01:27:18;1.08;;;1.08;;
64419;SDS011;50745;48.170;14.516;2023-01-16T01:37:19;2.28;;;1.40;;
64419;SDS011;50745;48.170;14.516;2023-01-16T01:47:26;1.08;;;1.08;;
64419;SDS011;50745;48.170;14.516;2023-01-16T01:57:34;1.30;;;1.20;;
64419;SDS011;50745;48.170;14.516;2023-01-16T02:07:37;1.05;;;0.98;;
64419;SDS011;50745;48.170;14.516;2023-01-16T02:17:44;1.50;;;1.10;;
64419;SDS011;50745;48.170;14.516;2023-01-16T02:28:51;1.38;;;1.27;;
64419;SDS011;50745;48.170;14.516;2023-01-16T02:38:38;1.08;;;1.02;;
64419;SDS011;50745;48.170;14.516;2023-01-16T02:59:02;1.13;;;1.00;;
64419;SDS011;50745;48.170;14.516;2023-01-16T03:19:23;1.67;;;1.20;;
64419;SDS011;50745;48.170;14.516;2023-01-16T03:29:36;1.70;;;1.17;;
64419;SDS011;50745;48.170;14.516;2023-01-16T03:39:41;1.73;;;1.20;;
64419;SDS011;50745;48.170;14.516;2023-01-16T03:49:44;1.30;;;1.20;;
64419;SDS011;50745;48.170;14.516;2023-01-16T03:59:46;1.50;;;1.30;;
64419;SDS011;50745;48.170;14.516;2023-01-16T04:09:51;1.45;;;1.13;;
64419;SDS011;50745;48.170;14.516;2023-01-16T04:19:54;1.60;;;1.30;;
64419;SDS011;50745;48.170;14.516;2023-01-16T04:29:56;1.83;;;1.20;;
64419;SDS011;50745;48.170;14.516;2023-01-16T04:39:57;1.30;;;1.20;;
64419;SDS011;50745;48.170;14.516;2023-01-16T04:49:59;2.40;;;1.40;;
64419;SDS011;50745;48.170;14.516;2023-01-16T05:00:00;1.30;;;1.20;;
64419;SDS011;50745;48.170;14.516;2023-01-16T05:10:02;1.10;;;1.08;;
64419;SDS011;50745;48.170;14.516;2023-01-16T05:20:03;0.90;;;0.90;;
64419;SDS011;50745;48.170;14.516;2023-01-16T05:30:05;1.95;;;1.20;;
64419;SDS011;50745;48.170;14.516;2023-01-16T05:40:06;1.20;;;1.10;;
64419;SDS011;50745;48.170;14.516;2023-01-16T05:50:08;1.30;;;1.20;;
64419;SDS011;50745;48.170;14.516;2023-01-16T06:00:10;1.20;;;1.10;;
64419;SDS011;50745;48.170;14.516;2023-01-16T06:10:11;1.33;;;1.23;;
64419;SDS011;50745;48.170;14.516;2023-01-16T06:20:12;0.90;;;0.90;;
64419;SDS011;50745;48.170;14.516;2023-01-16T06:30:14;0.80;;;0.80;;
64419;SDS011;50745;48.170;14.516;2023-01-16T06:40:15;0.85;;;0.85;;
64419;SDS011;50745;48.170;14.516;2023-01-16T06:50:16;1.20;;;1.10;;
64419;SDS011;50745;48.170;14.516;2023-01-16T07:00:18;0.98;;;0.90;;
64419;SDS011;50745;48.170;14.516;2023-01-16T07:10:19;0.85;;;0.85;;
64419;SDS011;50745;48.170;14.516;2023-01-16T07:20:21;0.90;;;0.90;;
64419;SDS011;50745;48.170;14.516;2023-01-16T07:30:41;0.82;;;0.82;;
64419;SDS011;50745;48.170;14.516;2023-01-16T07:40:42;0.90;;;0.90;;
64419;SDS011;50745;48.170;14.516;2023-01-16T07:50:48;0.93;;;0.80;;
64419;SDS011;50745;48.170;14.516;2023-01-16T08:00:51;0.77;;;0.77;;
64419;SDS011;50745;48.170;14.516;2023-01-16T08:10:53;0.80;;;0.80;;
64419;SDS011;50745;48.170;14.516;2023-01-16T08:20:55;0.80;;;0.80;;
64419;SDS011;50745;48.170;14.516;2023-01-16T08:31:02;0.80;;;0.80;;
64419;SDS011;50745;48.170;14.516;2023-01-16T08:41:03;0.82;;;0.82;;
64419;SDS011;50745;48.170;14.516;2023-01-16T08:51:04;0.90;;;0.90;;
64419;SDS011;50745;48.170;14.516;2023-01-16T09:01:24;0.80;;;0.80;;
64419;SDS011;50745;48.170;14.516;2023-01-16T09:11:25;0.80;;;0.80;;
64419;SDS011;50745;48.170;14.516;2023-01-16T09:21:45;0.77;;;0.77;;
64419;SDS011;50745;48.170;14.516;2023-01-16T09:31:46;0.80;;;0.80;;
64419;SDS011;50745;48.170;14.516;2023-01-16T09:52:17;0.73;;;0.73;;
64419;SDS011;50745;48.170;14.516;2023-01-16T10:02:38;1.08;;;0.98;;
64419;SDS011;50745;48.170;14.516;2023-01-16T10:12:40;1.00;;;1.00;;
64419;SDS011;50745;48.170;14.516;2023-01-16T10:33:02;1.05;;;0.98;;
64419;SDS011;50745;48.170;14.516;2023-01-16T10:43:16;0.98;;;0.98;;
64419;SDS011;50745;48.170;14.516;2023-01-16T10:53:37;0.90;;;0.90;;
64419;SDS011;50745;48.170;14.516;2023-01-16T11:03:40;0.85;;;0.85;;
64419;SDS011;50745;48.170;14.516;2023-01-16T11:13:41;0.90;;;0.90;;
64419;SDS011;50745;48.170;14.516;2023-01-16T11:24:15;0.90;;;0.90;;
64419;SDS011;50745;48.170;14.516;2023-01-16T11:34:17;0.90;;;0.90;;
64419;SDS011;50745;48.170;14.516;2023-01-16T11:44:23;0.70;;;0.70;;
64419;SDS011;50745;48.170;14.516;2023-01-16T11:54:43;1.17;;;0.98;;
64419;SDS011;50745;48.170;14.516;2023-01-16T12:15:20;0.90;;;0.90;;
64419;SDS011;50745;48.170;14.516;2023-01-16T12:25:34;0.90;;;0.90;;
64419;SDS011;50745;48.170;14.516;2023-01-16T12:46:00;1.13;;;1.02;;
64419;SDS011;50745;48.170;14.516;2023-01-16T12:56:46;1.00;;;1.00;;
64419;SDS011;50745;48.170;14.516;2023-01-16T13:06:39;0.90;;;0.90;;
64419;SDS011;50745;48.170;14.516;2023-01-16T13:16:44;0.90;;;0.90;;
64419;SDS011;50745;48.170;14.516;2023-01-16T13:26:56;0.83;;;0.83;;
64419;SDS011;50745;48.170;14.516;2023-01-16T13:37:05;0.80;;;0.80;;
64419;SDS011;50745;48.170;14.516;2023-01-16T13:47:10;0.80;;;0.80;;
64419;SDS011;50745;48.170;14.516;2023-01-16T13:57:16;0.70;;;0.70;;
64419;SDS011;50745;48.170;14.516;2023-01-16T14:28:00;0.95;;;0.95;;
64419;SDS011;50745;48.170;14.516;2023-01-16T14:38:03;0.88;;;0.88;;
64419;SDS011;50745;48.170;14.516;2023-01-16T15:08:34;1.70;;;1.15;;
64419;SDS011;50745;48.170;14.516;2023-01-16T15:18:43;1.33;;;1.20;;
64419;SDS011;50745;48.170;14.516;2023-01-16T15:49:28;1.90;;;1.30;;
64419;SDS011;50745;48.170;14.516;2023-01-16T15:59:37;1.63;;;1.30;;
64419;SDS011;50745;48.170;14.516;2023-01-16T16:09:42;2.42;;;1.58;;
64419;SDS011;50745;48.170;14.516;2023-01-16T16:19:44;2.15;;;1.48;;
64419;SDS011;50745;48.170;14.516;2023-01-16T16:29:52;1.90;;;1.50;;
64419;SDS011;50745;48.170;14.516;2023-01-16T16:50:31;1.50;;;1.30;;
64419;SDS011;50745;48.170;14.516;2023-01-16T17:00:34;1.58;;;1.48;;
64419;SDS011;50745;48.170;14.516;2023-01-16T17:10:36;2.17;;;1.60;;
64419;SDS011;50745;48.170;14.516;2023-01-16T17:20:37;2.97;;;1.50;;
64419;SDS011;50745;48.170;14.516;2023-01-16T17:30:40;2.55;;;1.70;;
64419;SDS011;50745;48.170;14.516;2023-01-16T17:40:41;2.28;;;1.60;;
64419;SDS011;50745;48.170;14.516;2023-01-16T17:50:42;2.65;;;1.77;;
64419;SDS011;50745;48.170;14.516;2023-01-16T18:00:44;3.10;;;1.95;;
64419;SDS011;50745;48.170;14.516;2023-01-16T18:10:45;3.10;;;1.92;;
64419;SDS011;50745;48.170;14.516;2023-01-16T18:20:46;3.20;;;2.10;;
64419;SDS011;50745;48.170;14.516;2023-01-16T18:31:08;3.35;;;2.10;;
64419;SDS011;50745;48.170;14.516;2023-01-16T18:41:09;3.42;;;2.25;;
64419;SDS011;50745;48.170;14.516;2023-01-16T18:51:29;4.13;;;2.10;;
64419;SDS011;50745;48.170;14.516;2023-01-16T19:01:52;3.70;;;2.53;;
64419;SDS011;50745;48.170;14.516;2023-01-16T19:11:56;3.38;;;2.03;;
64419;SDS011;50745;48.170;14.516;2023-01-16T19:21:58;3.35;;;2.30;;
64419;SDS011;50745;48.170;14.516;2023-01-16T19:32:00;4.35;;;2.45;;
64419;SDS011;50745;48.170;14.516;2023-01-16T19:42:05;3.60;;;2.30;;
64419;SDS011;50745;48.170;14.516;2023-01-16T19:52:25;3.67;;;2.20;;
64419;SDS011;50745;48.170;14.516;2023-01-16T20:02:27;3.30;;;2.20;;
64419;SDS011;50745;48.170;14.516;2023-01-16T20:12:28;3.65;;;2.22;;
64419;SDS011;50745;48.170;14.516;2023-01-16T20:22:30;3.30;;;2.30;;
64419;SDS011;50745;48.170;14.516;2023-01-16T20:32:32;3.45;;;2.30;;
64419;SDS011;50745;48.170;14.516;2023-01-16T20:42:33;3.45;;;2.40;;
64419;SDS011;50745;48.170;14.516;2023-01-16T20:52:53;3.00;;;2.30;;
64419;SDS011;50745;48.170;14.516;2023-01-16T21:02:55;3.38;;;2.30;;
64419;SDS011;50745;48.170;14.516;2023-01-16T21:12:57;5.60;;;2.55;;
64419;SDS011;50745;48.170;14.516;2023-01-16T21:23:16;3.80;;;2.60;;
64419;SDS011;50745;48.170;14.516;2023-01-16T21:33:18;3.15;;;2.22;;
64419;SDS011;50745;48.170;14.516;2023-01-16T21:43:20;3.78;;;2.25;;
64419;SDS011;50745;48.170;14.516;2023-01-16T21:53:40;3.40;;;2.50;;
64419;SDS011;50745;48.170;14.516;2023-01-16T22:03:41;3.40;;;2.33;;
64419;SDS011;50745;48.170;14.516;2023-01-16T22:13:42;3.55;;;2.60;;
64419;SDS011;50745;48.170;14.516;2023-01-16T22:24:02;4.05;;;2.85;;
64419;SDS011;50745;48.170;14.516;2023-01-16T22:34:05;4.80;;;3.08;;
64419;SDS011;50745;48.170;14.516;2023-01-16T22:44:08;6.43;;;3.47;;
64419;SDS011;50745;48.170;14.516;2023-01-16T22:54:28;4.45;;;3.05;;
64419;SDS011;50745;48.170;14.516;2023-01-16T23:04:29;4.57;;;3.00;;
64419;SDS011;50745;48.170;14.516;2023-01-16T23:14:31;4.22;;;2.78;;
64419;SDS011;50745;48.170;14.516;2023-01-16T23:24:32;4.20;;;2.67;;
64419;SDS011;50745;48.170;14.516;2023-01-16T23:34:36;4.35;;;2.88;;
64419;SDS011;50745;48.170;14.516;2023-01-16T23:44:37;3.80;;;2.63;;
64419;SDS011;50745;48.170;14.516;2023-01-16T23:54:39;3.72;;;2.60;;
